sensor_id;sensor_type;location;lat;lon;timestamp;P1;durP1;ratioP1;P2;durP2;ratioP2
19828;SDS011;10075;50.924;4.396;2023-03-01T00:01:09;12.93;;;7.63;;
19828;SDS011;10075;50.924;4.396;2023-03-01T00:03:38;11.10;;;7.70;;
19828;SDS011;10075;50.924;4.396;2023-03-01T00:06:05;10.40;;;7.50;;
19828;SDS011;10075;50.924;4.396;2023-03-01T00:08:33;12.83;;;7.63;;
19828;SDS011;10075;50.924;4.396;2023-03-01T00:11:01;13.83;;;8.20;;
19828;SDS011;10075;50.924;4.396;2023-03-01T00:13:30;11.77;;;8.03;;
19828;SDS011;10075;50.924;4.396;2023-03-01T00:15:59;13.03;;;7.87;;
19828;SDS011;10075;50.924;4.396;2023-03-01T00:18:28;11.30;;;8.47;;
19828;SDS011;10075;50.924;4.396;2023-03-01T00:20:55;11.77;;;7.67;;
19828;SDS011;10075;50.924;4.396;2023-03-01T00:23:23;11.37;;;7.17;;
19828;SDS011;10075;50.924;4.396;2023-03-01T00:25:51;12.63;;;7.93;;
19828;SDS011;10075;50.924;4.396;2023-03-01T00:28:18;10.97;;;7.60;;
19828;SDS011;10075;50.924;4.396;2023-03-01T00:30:45;11.20;;;7.43;;
19828;SDS011;10075;50.924;4.396;2023-03-01T00:33:14;11.83;;;7.50;;
19828;SDS011;10075;50.924;4.396;2023-03-01T00:35:41;11.20;;;7.90;;
19828;SDS011;10075;50.924;4.396;2023-03-01T00:38:08;12.87;;;7.57;;
19828;SDS011;10075;50.924;4.396;2023-03-01T00:40:35;13.03;;;8.47;;
19828;SDS011;10075;50.924;4.396;2023-03-01T00:43:03;15.50;;;8.63;;
19828;SDS011;10075;50.924;4.396;2023-03-01T00:45:31;11.93;;;7.50;;
19828;SDS011;10075;50.924;4.396;2023-03-01T00:47:59;10.93;;;7.07;;
19828;SDS011;10075;50.924;4.396;2023-03-01T00:50:27;10.87;;;7.63;;
19828;SDS011;10075;50.924;4.396;2023-03-01T00:52:55;11.73;;;7.73;;
19828;SDS011;10075;50.924;4.396;2023-03-01T00:55:23;12.63;;;7.30;;
19828;SDS011;10075;50.924;4.396;2023-03-01T00:57:50;10.87;;;7.70;;
19828;SDS011;10075;50.924;4.396;2023-03-01T01:00:18;15.17;;;8.70;;
19828;SDS011;10075;50.924;4.396;2023-03-01T01:02:46;11.47;;;8.13;;
19828;SDS011;10075;50.924;4.396;2023-03-01T01:05:13;11.80;;;7.67;;
19828;SDS011;10075;50.924;4.396;2023-03-01T01:07:47;11.20;;;7.77;;
19828;SDS011;10075;50.924;4.396;2023-03-01T01:10:14;11.17;;;7.57;;
19828;SDS011;10075;50.924;4.396;2023-03-01T01:12:43;13.23;;;7.80;;
19828;SDS011;10075;50.924;4.396;2023-03-01T01:15:10;12.77;;;7.73;;
19828;SDS011;10075;50.924;4.396;2023-03-01T01:17:39;10.83;;;7.63;;
19828;SDS011;10075;50.924;4.396;2023-03-01T01:20:06;10.27;;;6.50;;
19828;SDS011;10075;50.924;4.396;2023-03-01T01:22:34;12.93;;;7.80;;
19828;SDS011;10075;50.924;4.396;2023-03-01T01:25:03;13.07;;;7.60;;
19828;SDS011;10075;50.924;4.396;2023-03-01T01:27:30;12.43;;;7.30;;
19828;SDS011;10075;50.924;4.396;2023-03-01T01:29:57;14.67;;;8.30;;
19828;SDS011;10075;50.924;4.396;2023-03-01T01:32:24;10.30;;;7.30;;
19828;SDS011;10075;50.924;4.396;2023-03-01T01:34:51;13.27;;;8.03;;
19828;SDS011;10075;50.924;4.396;2023-03-01T01:37:18;11.60;;;7.77;;
19828;SDS011;10075;50.924;4.396;2023-03-01T01:39:45;11.37;;;8.23;;
19828;SDS011;10075;50.924;4.396;2023-03-01T01:42:14;9.70;;;7.50;;
19828;SDS011;10075;50.924;4.396;2023-03-01T01:44:44;12.63;;;8.53;;
19828;SDS011;10075;50.924;4.396;2023-03-01T01:47:13;15.43;;;7.33;;
19828;SDS011;10075;50.924;4.396;2023-03-01T01:49:43;11.40;;;7.20;;
19828;SDS011;10075;50.924;4.396;2023-03-01T01:52:13;11.70;;;6.80;;
19828;SDS011;10075;50.924;4.396;2023-03-01T01:54:46;11.77;;;7.50;;
19828;SDS011;10075;50.924;4.396;2023-03-01T01:57:19;10.13;;;7.43;;
19828;SDS011;10075;50.924;4.396;2023-03-01T01:59:50;11.40;;;6.77;;
19828;SDS011;10075;50.924;4.396;2023-03-01T02:02:20;11.07;;;7.30;;
19828;SDS011;10075;50.924;4.396;2023-03-01T02:04:47;11.70;;;7.57;;
19828;SDS011;10075;50.924;4.396;2023-03-01T02:07:16;11.80;;;7.90;;
19828;SDS011;10075;50.924;4.396;2023-03-01T02:09:45;11.07;;;7.93;;
19828;SDS011;10075;50.924;4.396;2023-03-01T02:12:13;10.43;;;7.40;;
19828;SDS011;10075;50.924;4.396;2023-03-01T02:14:43;11.33;;;7.37;;
19828;SDS011;10075;50.924;4.396;2023-03-01T02:17:10;18.73;;;8.27;;
19828;SDS011;10075;50.924;4.396;2023-03-01T02:19:42;11.93;;;7.00;;
19828;SDS011;10075;50.924;4.396;2023-03-01T02:22:20;14.33;;;7.43;;
19828;SDS011;10075;50.924;4.396;2023-03-01T02:24:53;12.47;;;8.10;;
19828;SDS011;10075;50.924;4.396;2023-03-01T02:27:32;11.87;;;7.83;;
19828;SDS011;10075;50.924;4.396;2023-03-01T02:30:05;9.93;;;7.30;;
19828;SDS011;10075;50.924;4.396;2023-03-01T02:32:33;13.13;;;7.37;;
19828;SDS011;10075;50.924;4.396;2023-03-01T02:34:59;11.77;;;7.67;;
19828;SDS011;10075;50.924;4.396;2023-03-01T02:37:26;13.53;;;7.97;;
19828;SDS011;10075;50.924;4.396;2023-03-01T02:39:55;14.07;;;7.80;;
19828;SDS011;10075;50.924;4.396;2023-03-01T02:42:26;10.00;;;7.80;;
19828;SDS011;10075;50.924;4.396;2023-03-01T02:44:58;12.47;;;8.30;;
19828;SDS011;10075;50.924;4.396;2023-03-01T02:47:26;11.30;;;8.10;;
19828;SDS011;10075;50.924;4.396;2023-03-01T02:49:53;15.13;;;8.90;;
19828;SDS011;10075;50.924;4.396;2023-03-01T02:52:22;12.00;;;8.57;;
19828;SDS011;10075;50.924;4.396;2023-03-01T02:55:03;12.30;;;8.03;;
19828;SDS011;10075;50.924;4.396;2023-03-01T02:57:35;11.00;;;7.90;;
19828;SDS011;10075;50.924;4.396;2023-03-01T03:00:05;11.60;;;8.10;;
19828;SDS011;10075;50.924;4.396;2023-03-01T03:02:35;11.57;;;7.33;;
19828;SDS011;10075;50.924;4.396;2023-03-01T03:05:03;12.87;;;8.40;;
19828;SDS011;10075;50.924;4.396;2023-03-01T03:07:33;15.17;;;8.97;;
19828;SDS011;10075;50.924;4.396;2023-03-01T03:10:01;15.07;;;8.53;;
19828;SDS011;10075;50.924;4.396;2023-03-01T03:12:29;15.80;;;9.03;;
19828;SDS011;10075;50.924;4.396;2023-03-01T03:14:56;11.90;;;8.33;;
19828;SDS011;10075;50.924;4.396;2023-03-01T03:17:23;12.87;;;8.83;;
19828;SDS011;10075;50.924;4.396;2023-03-01T03:19:51;13.83;;;8.83;;
19828;SDS011;10075;50.924;4.396;2023-03-01T03:22:18;13.00;;;8.73;;
19828;SDS011;10075;50.924;4.396;2023-03-01T03:24:45;13.07;;;8.53;;
19828;SDS011;10075;50.924;4.396;2023-03-01T03:27:12;12.90;;;9.30;;
19828;SDS011;10075;50.924;4.396;2023-03-01T03:29:39;12.97;;;9.00;;
19828;SDS011;10075;50.924;4.396;2023-03-01T03:32:06;13.57;;;8.63;;
19828;SDS011;10075;50.924;4.396;2023-03-01T03:34:33;15.43;;;9.33;;
19828;SDS011;10075;50.924;4.396;2023-03-01T03:37:01;12.10;;;8.63;;
19828;SDS011;10075;50.924;4.396;2023-03-01T03:39:28;14.70;;;9.03;;
19828;SDS011;10075;50.924;4.396;2023-03-01T03:42:00;13.60;;;9.23;;
19828;SDS011;10075;50.924;4.396;2023-03-01T03:44:27;13.53;;;9.17;;
19828;SDS011;10075;50.924;4.396;2023-03-01T03:46:54;13.83;;;9.30;;
19828;SDS011;10075;50.924;4.396;2023-03-01T03:49:21;14.70;;;9.03;;
19828;SDS011;10075;50.924;4.396;2023-03-01T03:51:48;13.97;;;8.50;;
19828;SDS011;10075;50.924;4.396;2023-03-01T03:54:17;15.03;;;8.47;;
19828;SDS011;10075;50.924;4.396;2023-03-01T03:56:44;13.23;;;9.07;;
19828;SDS011;10075;50.924;4.396;2023-03-01T03:59:11;15.30;;;9.40;;
19828;SDS011;10075;50.924;4.396;2023-03-01T04:01:38;16.57;;;8.93;;
19828;SDS011;10075;50.924;4.396;2023-03-01T04:04:05;12.20;;;8.73;;
19828;SDS011;10075;50.924;4.396;2023-03-01T04:06:32;15.97;;;9.10;;
19828;SDS011;10075;50.924;4.396;2023-03-01T04:08:59;11.47;;;8.60;;
19828;SDS011;10075;50.924;4.396;2023-03-01T04:11:29;12.47;;;8.40;;
19828;SDS011;10075;50.924;4.396;2023-03-01T04:13:57;12.03;;;8.60;;
19828;SDS011;10075;50.924;4.396;2023-03-01T04:16:25;13.07;;;8.53;;
19828;SDS011;10075;50.924;4.396;2023-03-01T04:18:52;13.20;;;8.83;;
19828;SDS011;10075;50.924;4.396;2023-03-01T04:21:20;16.00;;;8.63;;
19828;SDS011;10075;50.924;4.396;2023-03-01T04:23:47;14.67;;;8.87;;
19828;SDS011;10075;50.924;4.396;2023-03-01T04:26:17;14.33;;;9.47;;
19828;SDS011;10075;50.924;4.396;2023-03-01T04:28:47;14.60;;;8.70;;
19828;SDS011;10075;50.924;4.396;2023-03-01T04:31:16;14.40;;;8.70;;
19828;SDS011;10075;50.924;4.396;2023-03-01T04:33:47;17.37;;;8.27;;
19828;SDS011;10075;50.924;4.396;2023-03-01T04:36:16;17.10;;;9.33;;
19828;SDS011;10075;50.924;4.396;2023-03-01T04:38:44;13.23;;;8.77;;
19828;SDS011;10075;50.924;4.396;2023-03-01T04:41:13;12.77;;;8.43;;
19828;SDS011;10075;50.924;4.396;2023-03-01T04:43:42;13.53;;;8.83;;
19828;SDS011;10075;50.924;4.396;2023-03-01T04:46:11;14.33;;;9.60;;
19828;SDS011;10075;50.924;4.396;2023-03-01T04:48:40;17.40;;;9.00;;
19828;SDS011;10075;50.924;4.396;2023-03-01T04:51:09;13.40;;;8.90;;
19828;SDS011;10075;50.924;4.396;2023-03-01T04:53:38;14.33;;;8.73;;
19828;SDS011;10075;50.924;4.396;2023-03-01T04:56:06;14.50;;;8.77;;
19828;SDS011;10075;50.924;4.396;2023-03-01T04:58:33;15.77;;;9.07;;
19828;SDS011;10075;50.924;4.396;2023-03-01T05:01:00;15.23;;;8.57;;
19828;SDS011;10075;50.924;4.396;2023-03-01T05:03:28;15.50;;;9.13;;
19828;SDS011;10075;50.924;4.396;2023-03-01T05:05:58;13.27;;;9.03;;
19828;SDS011;10075;50.924;4.396;2023-03-01T05:08:25;18.10;;;9.10;;
19828;SDS011;10075;50.924;4.396;2023-03-01T05:10:52;17.83;;;9.00;;
19828;SDS011;10075;50.924;4.396;2023-03-01T05:13:20;14.23;;;8.60;;
19828;SDS011;10075;50.924;4.396;2023-03-01T05:15:48;14.20;;;8.37;;
19828;SDS011;10075;50.924;4.396;2023-03-01T05:18:19;14.40;;;8.90;;
19828;SDS011;10075;50.924;4.396;2023-03-01T05:20:47;15.73;;;8.97;;
19828;SDS011;10075;50.924;4.396;2023-03-01T05:23:14;19.60;;;9.50;;
19828;SDS011;10075;50.924;4.396;2023-03-01T05:25:41;15.57;;;9.17;;
19828;SDS011;10075;50.924;4.396;2023-03-01T05:28:09;15.83;;;9.20;;
19828;SDS011;10075;50.924;4.396;2023-03-01T05:30:37;17.33;;;9.87;;
19828;SDS011;10075;50.924;4.396;2023-03-01T05:33:05;15.87;;;9.43;;
19828;SDS011;10075;50.924;4.396;2023-03-01T05:35:38;15.20;;;9.37;;
19828;SDS011;10075;50.924;4.396;2023-03-01T05:38:08;19.10;;;10.13;;
19828;SDS011;10075;50.924;4.396;2023-03-01T05:40:38;14.37;;;8.90;;
19828;SDS011;10075;50.924;4.396;2023-03-01T05:43:05;14.17;;;9.27;;
19828;SDS011;10075;50.924;4.396;2023-03-01T05:45:32;11.97;;;8.37;;
19828;SDS011;10075;50.924;4.396;2023-03-01T05:48:01;13.50;;;9.27;;
19828;SDS011;10075;50.924;4.396;2023-03-01T05:50:32;19.23;;;9.03;;
19828;SDS011;10075;50.924;4.396;2023-03-01T05:53:01;15.23;;;8.60;;
19828;SDS011;10075;50.924;4.396;2023-03-01T05:55:32;11.77;;;8.50;;
19828;SDS011;10075;50.924;4.396;2023-03-01T05:58:00;16.07;;;8.87;;
19828;SDS011;10075;50.924;4.396;2023-03-01T06:00:29;15.53;;;9.47;;
19828;SDS011;10075;50.924;4.396;2023-03-01T06:02:57;17.97;;;9.33;;
19828;SDS011;10075;50.924;4.396;2023-03-01T06:05:25;14.60;;;8.63;;
19828;SDS011;10075;50.924;4.396;2023-03-01T06:07:53;16.27;;;8.60;;
19828;SDS011;10075;50.924;4.396;2023-03-01T06:10:20;16.67;;;8.73;;
19828;SDS011;10075;50.924;4.396;2023-03-01T06:12:49;12.73;;;9.17;;
19828;SDS011;10075;50.924;4.396;2023-03-01T06:15:16;16.90;;;9.10;;
19828;SDS011;10075;50.924;4.396;2023-03-01T06:17:44;16.90;;;9.63;;
19828;SDS011;10075;50.924;4.396;2023-03-01T06:20:13;22.40;;;10.07;;
19828;SDS011;10075;50.924;4.396;2023-03-01T06:22:41;17.23;;;8.97;;
19828;SDS011;10075;50.924;4.396;2023-03-01T06:25:08;18.63;;;10.73;;
19828;SDS011;10075;50.924;4.396;2023-03-01T06:27:36;29.43;;;10.17;;
19828;SDS011;10075;50.924;4.396;2023-03-01T06:30:05;32.97;;;11.07;;
19828;SDS011;10075;50.924;4.396;2023-03-01T06:32:34;34.07;;;12.93;;
19828;SDS011;10075;50.924;4.396;2023-03-01T06:35:02;27.43;;;12.03;;
19828;SDS011;10075;50.924;4.396;2023-03-01T06:37:29;31.60;;;10.87;;
19828;SDS011;10075;50.924;4.396;2023-03-01T06:39:56;30.93;;;11.20;;
19828;SDS011;10075;50.924;4.396;2023-03-01T06:42:23;42.07;;;11.73;;
19828;SDS011;10075;50.924;4.396;2023-03-01T06:44:50;40.10;;;12.83;;
19828;SDS011;10075;50.924;4.396;2023-03-01T06:47:19;32.37;;;11.83;;
19828;SDS011;10075;50.924;4.396;2023-03-01T06:49:45;40.60;;;11.53;;
19828;SDS011;10075;50.924;4.396;2023-03-01T06:52:12;26.30;;;10.97;;
19828;SDS011;10075;50.924;4.396;2023-03-01T06:54:39;32.03;;;10.53;;
19828;SDS011;10075;50.924;4.396;2023-03-01T06:57:06;30.97;;;11.77;;
19828;SDS011;10075;50.924;4.396;2023-03-01T06:59:33;23.53;;;10.47;;
19828;SDS011;10075;50.924;4.396;2023-03-01T07:02:00;28.93;;;10.73;;
19828;SDS011;10075;50.924;4.396;2023-03-01T07:04:29;20.10;;;10.17;;
19828;SDS011;10075;50.924;4.396;2023-03-01T07:06:56;24.77;;;10.10;;
19828;SDS011;10075;50.924;4.396;2023-03-01T07:09:23;22.07;;;10.07;;
19828;SDS011;10075;50.924;4.396;2023-03-01T07:11:50;20.83;;;9.93;;
19828;SDS011;10075;50.924;4.396;2023-03-01T07:14:17;26.63;;;11.10;;
19828;SDS011;10075;50.924;4.396;2023-03-01T07:16:45;33.47;;;11.13;;
19828;SDS011;10075;50.924;4.396;2023-03-01T07:19:12;21.63;;;10.57;;
19828;SDS011;10075;50.924;4.396;2023-03-01T07:21:40;18.63;;;9.33;;
19828;SDS011;10075;50.924;4.396;2023-03-01T07:24:08;29.53;;;9.93;;
19828;SDS011;10075;50.924;4.396;2023-03-01T07:26:36;27.03;;;10.80;;
19828;SDS011;10075;50.924;4.396;2023-03-01T07:29:04;19.43;;;10.47;;
19828;SDS011;10075;50.924;4.396;2023-03-01T07:31:32;21.83;;;10.87;;
19828;SDS011;10075;50.924;4.396;2023-03-01T07:34:00;22.53;;;9.97;;
19828;SDS011;10075;50.924;4.396;2023-03-01T07:36:27;16.23;;;9.60;;
19828;SDS011;10075;50.924;4.396;2023-03-01T07:38:56;23.10;;;10.70;;
19828;SDS011;10075;50.924;4.396;2023-03-01T07:41:23;24.70;;;10.63;;
19828;SDS011;10075;50.924;4.396;2023-03-01T07:43:50;15.70;;;9.70;;
19828;SDS011;10075;50.924;4.396;2023-03-01T07:46:16;23.10;;;11.13;;
19828;SDS011;10075;50.924;4.396;2023-03-01T07:48:44;21.20;;;10.20;;
19828;SDS011;10075;50.924;4.396;2023-03-01T07:51:11;30.80;;;10.63;;
19828;SDS011;10075;50.924;4.396;2023-03-01T07:53:38;36.47;;;11.60;;
19828;SDS011;10075;50.924;4.396;2023-03-01T07:56:07;29.00;;;10.93;;
19828;SDS011;10075;50.924;4.396;2023-03-01T07:58:36;25.17;;;11.50;;
19828;SDS011;10075;50.924;4.396;2023-03-01T08:01:04;38.03;;;11.43;;
19828;SDS011;10075;50.924;4.396;2023-03-01T08:03:33;17.07;;;9.67;;
19828;SDS011;10075;50.924;4.396;2023-03-01T08:06:01;16.70;;;10.07;;
19828;SDS011;10075;50.924;4.396;2023-03-01T08:08:29;19.27;;;8.90;;
19828;SDS011;10075;50.924;4.396;2023-03-01T08:10:56;16.03;;;10.47;;
19828;SDS011;10075;50.924;4.396;2023-03-01T08:13:25;15.20;;;9.00;;
19828;SDS011;10075;50.924;4.396;2023-03-01T08:15:52;15.13;;;9.37;;
19828;SDS011;10075;50.924;4.396;2023-03-01T08:18:20;18.73;;;10.30;;
19828;SDS011;10075;50.924;4.396;2023-03-01T08:20:47;15.37;;;9.53;;
19828;SDS011;10075;50.924;4.396;2023-03-01T08:23:14;20.90;;;10.03;;
19828;SDS011;10075;50.924;4.396;2023-03-01T08:25:41;20.97;;;10.50;;
19828;SDS011;10075;50.924;4.396;2023-03-01T08:28:08;15.50;;;8.80;;
19828;SDS011;10075;50.924;4.396;2023-03-01T08:30:36;14.63;;;9.33;;
19828;SDS011;10075;50.924;4.396;2023-03-01T08:33:03;13.67;;;8.83;;
19828;SDS011;10075;50.924;4.396;2023-03-01T08:35:30;17.50;;;10.03;;
19828;SDS011;10075;50.924;4.396;2023-03-01T08:37:57;14.13;;;8.93;;
19828;SDS011;10075;50.924;4.396;2023-03-01T08:40:24;15.57;;;10.03;;
19828;SDS011;10075;50.924;4.396;2023-03-01T08:42:51;14.03;;;9.17;;
19828;SDS011;10075;50.924;4.396;2023-03-01T08:45:18;16.47;;;9.47;;
19828;SDS011;10075;50.924;4.396;2023-03-01T08:47:47;19.50;;;9.37;;
19828;SDS011;10075;50.924;4.396;2023-03-01T08:50:14;15.33;;;9.30;;
19828;SDS011;10075;50.924;4.396;2023-03-01T08:52:41;14.03;;;9.97;;
19828;SDS011;10075;50.924;4.396;2023-03-01T08:55:08;20.67;;;9.87;;
19828;SDS011;10075;50.924;4.396;2023-03-01T08:57:35;20.47;;;10.40;;
19828;SDS011;10075;50.924;4.396;2023-03-01T09:00:03;16.07;;;9.23;;
19828;SDS011;10075;50.924;4.396;2023-03-01T09:02:33;15.30;;;9.67;;
19828;SDS011;10075;50.924;4.396;2023-03-01T09:05:01;16.07;;;9.40;;
19828;SDS011;10075;50.924;4.396;2023-03-01T09:07:29;16.30;;;10.17;;
19828;SDS011;10075;50.924;4.396;2023-03-01T09:09:56;19.93;;;9.77;;
19828;SDS011;10075;50.924;4.396;2023-03-01T09:12:23;14.40;;;9.33;;
19828;SDS011;10075;50.924;4.396;2023-03-01T09:14:51;16.63;;;9.40;;
19828;SDS011;10075;50.924;4.396;2023-03-01T09:17:17;15.87;;;9.83;;
19828;SDS011;10075;50.924;4.396;2023-03-01T09:19:46;14.90;;;9.10;;
19828;SDS011;10075;50.924;4.396;2023-03-01T09:22:15;15.17;;;9.47;;
19828;SDS011;10075;50.924;4.396;2023-03-01T09:24:42;11.83;;;8.83;;
19828;SDS011;10075;50.924;4.396;2023-03-01T09:27:10;15.27;;;9.63;;
19828;SDS011;10075;50.924;4.396;2023-03-01T09:29:37;15.17;;;9.00;;
19828;SDS011;10075;50.924;4.396;2023-03-01T09:32:04;16.33;;;10.30;;
19828;SDS011;10075;50.924;4.396;2023-03-01T09:34:33;15.43;;;9.40;;
19828;SDS011;10075;50.924;4.396;2023-03-01T09:37:21;14.17;;;9.27;;
19828;SDS011;10075;50.924;4.396;2023-03-01T09:39:48;13.83;;;8.47;;
19828;SDS011;10075;50.924;4.396;2023-03-01T09:42:15;13.77;;;9.37;;
19828;SDS011;10075;50.924;4.396;2023-03-01T09:44:43;13.47;;;9.63;;
19828;SDS011;10075;50.924;4.396;2023-03-01T09:47:16;16.37;;;10.50;;
19828;SDS011;10075;50.924;4.396;2023-03-01T09:49:45;14.67;;;10.67;;
19828;SDS011;10075;50.924;4.396;2023-03-01T09:52:25;17.30;;;9.60;;
19828;SDS011;10075;50.924;4.396;2023-03-01T09:54:58;15.93;;;10.33;;
19828;SDS011;10075;50.924;4.396;2023-03-01T09:57:26;16.20;;;9.77;;
19828;SDS011;10075;50.924;4.396;2023-03-01T10:00:05;13.77;;;9.73;;
19828;SDS011;10075;50.924;4.396;2023-03-01T10:02:57;14.27;;;9.50;;
19828;SDS011;10075;50.924;4.396;2023-03-01T10:05:34;14.93;;;9.73;;
19828;SDS011;10075;50.924;4.396;2023-03-01T10:08:25;13.07;;;9.57;;
19828;SDS011;10075;50.924;4.396;2023-03-01T10:10:56;15.53;;;9.10;;
19828;SDS011;10075;50.924;4.396;2023-03-01T10:13:25;15.53;;;9.33;;
19828;SDS011;10075;50.924;4.396;2023-03-01T10:16:01;18.23;;;9.60;;
19828;SDS011;10075;50.924;4.396;2023-03-01T10:18:35;23.00;;;11.33;;
19828;SDS011;10075;50.924;4.396;2023-03-01T10:21:08;14.90;;;9.60;;
19828;SDS011;10075;50.924;4.396;2023-03-01T10:23:43;15.07;;;9.43;;
19828;SDS011;10075;50.924;4.396;2023-03-01T10:26:14;17.07;;;9.73;;
19828;SDS011;10075;50.924;4.396;2023-03-01T10:28:55;25.57;;;9.93;;
19828;SDS011;10075;50.924;4.396;2023-03-01T10:31:33;28.50;;;9.57;;
19828;SDS011;10075;50.924;4.396;2023-03-01T10:34:09;24.00;;;10.43;;
19828;SDS011;10075;50.924;4.396;2023-03-01T10:36:39;14.23;;;9.20;;
19828;SDS011;10075;50.924;4.396;2023-03-01T10:39:12;16.80;;;9.97;;
19828;SDS011;10075;50.924;4.396;2023-03-01T10:41:51;14.27;;;8.70;;
19828;SDS011;10075;50.924;4.396;2023-03-01T10:47:13;16.30;;;9.33;;
19828;SDS011;10075;50.924;4.396;2023-03-01T10:49:53;12.23;;;8.60;;
19828;SDS011;10075;50.924;4.396;2023-03-01T10:52:24;14.73;;;8.43;;
19828;SDS011;10075;50.924;4.396;2023-03-01T10:54:55;16.03;;;9.07;;
19828;SDS011;10075;50.924;4.396;2023-03-01T10:57:31;16.40;;;8.27;;
19828;SDS011;10075;50.924;4.396;2023-03-01T11:00:14;18.40;;;9.17;;
19828;SDS011;10075;50.924;4.396;2023-03-01T11:02:45;16.90;;;9.37;;
19828;SDS011;10075;50.924;4.396;2023-03-01T11:05:18;18.73;;;9.57;;
19828;SDS011;10075;50.924;4.396;2023-03-01T11:07:49;20.33;;;9.57;;
19828;SDS011;10075;50.924;4.396;2023-03-01T11:10:21;14.30;;;9.87;;
19828;SDS011;10075;50.924;4.396;2023-03-01T11:12:50;11.10;;;9.30;;
19828;SDS011;10075;50.924;4.396;2023-03-01T11:15:20;13.17;;;8.00;;
19828;SDS011;10075;50.924;4.396;2023-03-01T11:17:51;12.53;;;8.10;;
19828;SDS011;10075;50.924;4.396;2023-03-01T11:20:23;10.93;;;7.47;;
19828;SDS011;10075;50.924;4.396;2023-03-01T11:22:53;14.70;;;8.73;;
19828;SDS011;10075;50.924;4.396;2023-03-01T11:25:25;12.77;;;7.80;;
19828;SDS011;10075;50.924;4.396;2023-03-01T11:27:54;12.90;;;8.27;;
19828;SDS011;10075;50.924;4.396;2023-03-01T11:30:24;14.27;;;8.87;;
19828;SDS011;10075;50.924;4.396;2023-03-01T11:33:02;13.27;;;8.60;;
19828;SDS011;10075;50.924;4.396;2023-03-01T11:35:37;17.67;;;8.30;;
19828;SDS011;10075;50.924;4.396;2023-03-01T11:38:20;15.27;;;8.80;;
19828;SDS011;10075;50.924;4.396;2023-03-01T11:40:51;13.97;;;8.50;;
19828;SDS011;10075;50.924;4.396;2023-03-01T11:43:28;19.03;;;8.60;;
19828;SDS011;10075;50.924;4.396;2023-03-01T11:46:16;12.17;;;8.60;;
19828;SDS011;10075;50.924;4.396;2023-03-01T11:48:58;12.90;;;7.70;;
19828;SDS011;10075;50.924;4.396;2023-03-01T11:51:37;12.47;;;8.70;;
19828;SDS011;10075;50.924;4.396;2023-03-01T11:54:12;13.60;;;8.60;;
19828;SDS011;10075;50.924;4.396;2023-03-01T11:56:47;14.27;;;8.10;;
19828;SDS011;10075;50.924;4.396;2023-03-01T11:59:22;13.80;;;8.80;;
19828;SDS011;10075;50.924;4.396;2023-03-01T12:05:02;15.07;;;8.30;;
19828;SDS011;10075;50.924;4.396;2023-03-01T12:07:53;13.50;;;8.33;;
19828;SDS011;10075;50.924;4.396;2023-03-01T12:10:26;11.13;;;7.83;;
19828;SDS011;10075;50.924;4.396;2023-03-01T12:13:01;13.30;;;7.77;;
19828;SDS011;10075;50.924;4.396;2023-03-01T12:15:58;9.93;;;7.43;;
19828;SDS011;10075;50.924;4.396;2023-03-01T12:18:44;12.53;;;8.00;;
19828;SDS011;10075;50.924;4.396;2023-03-01T12:21:35;11.57;;;8.27;;
19828;SDS011;10075;50.924;4.396;2023-03-01T12:24:26;10.90;;;7.27;;
19828;SDS011;10075;50.924;4.396;2023-03-01T12:27:15;12.23;;;7.77;;
19828;SDS011;10075;50.924;4.396;2023-03-01T12:29:54;16.27;;;8.17;;
19828;SDS011;10075;50.924;4.396;2023-03-01T12:32:36;19.40;;;8.27;;
19828;SDS011;10075;50.924;4.396;2023-03-01T12:35:19;20.77;;;8.40;;
19828;SDS011;10075;50.924;4.396;2023-03-01T12:37:59;13.77;;;8.03;;
19828;SDS011;10075;50.924;4.396;2023-03-01T12:43:41;10.27;;;8.03;;
19828;SDS011;10075;50.924;4.396;2023-03-01T12:46:24;12.20;;;7.60;;
19828;SDS011;10075;50.924;4.396;2023-03-01T12:49:02;12.77;;;8.50;;
19828;SDS011;10075;50.924;4.396;2023-03-01T12:51:37;10.97;;;7.63;;
19828;SDS011;10075;50.924;4.396;2023-03-01T12:54:07;11.93;;;7.73;;
19828;SDS011;10075;50.924;4.396;2023-03-01T12:56:41;17.33;;;8.67;;
19828;SDS011;10075;50.924;4.396;2023-03-01T12:59:17;14.77;;;8.30;;
19828;SDS011;10075;50.924;4.396;2023-03-01T13:01:53;13.70;;;8.60;;
19828;SDS011;10075;50.924;4.396;2023-03-01T13:04:33;16.20;;;8.20;;
19828;SDS011;10075;50.924;4.396;2023-03-01T13:07:21;26.70;;;9.20;;
19828;SDS011;10075;50.924;4.396;2023-03-01T13:09:55;17.20;;;8.90;;
19828;SDS011;10075;50.924;4.396;2023-03-01T13:12:45;14.30;;;7.43;;
19828;SDS011;10075;50.924;4.396;2023-03-01T13:15:27;13.23;;;8.07;;
19828;SDS011;10075;50.924;4.396;2023-03-01T13:17:58;13.17;;;9.17;;
19828;SDS011;10075;50.924;4.396;2023-03-01T13:20:27;13.27;;;8.73;;
19828;SDS011;10075;50.924;4.396;2023-03-01T13:23:07;11.70;;;8.27;;
19828;SDS011;10075;50.924;4.396;2023-03-01T13:34:43;10.43;;;7.83;;
19828;SDS011;10075;50.924;4.396;2023-03-01T13:37:33;14.10;;;8.03;;
19828;SDS011;10075;50.924;4.396;2023-03-01T13:40:04;12.47;;;8.37;;
19828;SDS011;10075;50.924;4.396;2023-03-01T13:42:50;13.60;;;7.70;;
19828;SDS011;10075;50.924;4.396;2023-03-01T13:45:20;17.57;;;9.00;;
19828;SDS011;10075;50.924;4.396;2023-03-01T13:47:53;16.53;;;8.43;;
19828;SDS011;10075;50.924;4.396;2023-03-01T13:50:25;15.97;;;8.70;;
19828;SDS011;10075;50.924;4.396;2023-03-01T13:52:56;13.47;;;7.47;;
19828;SDS011;10075;50.924;4.396;2023-03-01T13:55:27;12.43;;;7.47;;
19828;SDS011;10075;50.924;4.396;2023-03-01T13:58:01;13.63;;;7.90;;
19828;SDS011;10075;50.924;4.396;2023-03-01T14:00:40;11.03;;;7.80;;
19828;SDS011;10075;50.924;4.396;2023-03-01T14:03:11;13.70;;;8.03;;
19828;SDS011;10075;50.924;4.396;2023-03-01T14:05:42;14.80;;;8.63;;
19828;SDS011;10075;50.924;4.396;2023-03-01T14:08:18;21.37;;;8.53;;
19828;SDS011;10075;50.924;4.396;2023-03-01T14:10:51;17.57;;;9.20;;
19828;SDS011;10075;50.924;4.396;2023-03-01T14:13:32;16.03;;;7.90;;
19828;SDS011;10075;50.924;4.396;2023-03-01T14:16:15;19.07;;;8.40;;
19828;SDS011;10075;50.924;4.396;2023-03-01T14:19:01;15.83;;;7.47;;
19828;SDS011;10075;50.924;4.396;2023-03-01T14:21:37;21.73;;;8.73;;
19828;SDS011;10075;50.924;4.396;2023-03-01T14:24:04;14.07;;;8.07;;
19828;SDS011;10075;50.924;4.396;2023-03-01T14:26:32;13.50;;;8.33;;
19828;SDS011;10075;50.924;4.396;2023-03-01T14:29:02;11.83;;;8.13;;
19828;SDS011;10075;50.924;4.396;2023-03-01T14:31:31;13.67;;;8.57;;
19828;SDS011;10075;50.924;4.396;2023-03-01T14:34:02;21.83;;;8.77;;
19828;SDS011;10075;50.924;4.396;2023-03-01T14:36:30;16.80;;;8.70;;
19828;SDS011;10075;50.924;4.396;2023-03-01T14:38:59;12.33;;;8.00;;
19828;SDS011;10075;50.924;4.396;2023-03-01T14:41:31;15.40;;;9.03;;
19828;SDS011;10075;50.924;4.396;2023-03-01T14:44:01;11.03;;;8.20;;
19828;SDS011;10075;50.924;4.396;2023-03-01T14:46:32;11.03;;;7.10;;
19828;SDS011;10075;50.924;4.396;2023-03-01T14:49:02;14.67;;;8.67;;
19828;SDS011;10075;50.924;4.396;2023-03-01T14:51:30;13.93;;;8.43;;
19828;SDS011;10075;50.924;4.396;2023-03-01T14:54:04;9.63;;;7.70;;
19828;SDS011;10075;50.924;4.396;2023-03-01T14:56:44;16.67;;;8.27;;
19828;SDS011;10075;50.924;4.396;2023-03-01T14:59:13;13.37;;;8.03;;
19828;SDS011;10075;50.924;4.396;2023-03-01T15:01:40;14.07;;;9.10;;
19828;SDS011;10075;50.924;4.396;2023-03-01T15:04:09;11.93;;;7.83;;
19828;SDS011;10075;50.924;4.396;2023-03-01T15:06:39;12.00;;;8.00;;
19828;SDS011;10075;50.924;4.396;2023-03-01T15:09:12;16.63;;;9.17;;
19828;SDS011;10075;50.924;4.396;2023-03-01T15:11:41;16.13;;;7.40;;